Página principal
METAR-TAF:

METAR-TAF

Aeroportos :

Berlin, Alemanha

Aeroporto de Berlim-Tegel

latitude: 52-34N, longitude: 013-19E, altura: 37 m

Observação actual do tempo

O boletim foi feito há 14 minutos, às 23:20 UTC
Vento 6 kt de es-sudeste
Temperatura 12°C
Humidade 94%
Pressão 1013 hPa
Visibilidade: 8000 m

METAR: EDDT 192320Z 12006KT 8000 NSC 12/11 Q1013

Hora: 01:34 (23:34 UTC)

Previsão

O boletim foi feito há 6 horas e 34 minutos, às 17:00 UTC
Previsão válida de 19 às 18 UTC a 20 às 18 UTC
Vento 5 kt de sudeste
Visibilidade: 7000 m
Temporariamente
de 19 às 18 UTC a 20 às 08 UTC
Visibilidade: 2500 m
bancos de nevoeiro
Probabilidade 30% :
Temporariamente
de 20 às 00 UTC a 20 às 07 UTC
Visibilidade: 0700 m
nevoeiro
Tornando-se
de 20 às 15 UTC a 20 às 17 UTC
Vento 8 kt de sul

TAF: EDDT 191700Z 1918/2018 13005KT 7000 NSC TEMPO 1918/2008 2500 BCFG PROB30 TEMPO 2000/2007 0700 FG BECMG 2015/2017 19008KT

Observações e previsões do tempo de mais de 4000 aeroportos (mensagens METAR e TAF).

As estações disponíveis são os pontos amarelos e vermelhos sobre o mapa.

Mova o rato sobre o mapa para ver o nome da estação.

Depois clique no ponto para visualizar as observações e previsões meteorológicas.

Para alterar o mapa : clique nos botões verdes com uma cruz preta para aumentar o zoom; no botão verde com uma pitada de zoom; ou nas setas verdes para mapas adjacentes.


METAR-TAF: